Time;durP1;ratioP1;P1;durP2;ratioP2;P2;SDS_P1;SDS_P2;PMS_P1;PMS_P2;Temp;Humidity;BMP_temperature;BMP_pressure;BME280_temperature;BME280_humidity;BME280_pressure;Samples;Min_cycle;Max_cycle;Signal;HPM_P1;HPM_P2
2022/03/19 00:01:15;;;;;;;167.90;72.00;;;;;;;-4.66;63.07;102240.20;109706;1270;23170;-60
2022/03/19 00:03:44;;;;;;;149.00;69.10;;;;;;;-4.66;63.25;102236.98;109500;1271;138288;-61
2022/03/19 00:06:12;;;;;;;160.00;67.80;;;;;;;-4.67;63.40;102238.29;109661;1271;22561;-61
2022/03/19 00:08:41;;;;;;;140.60;65.60;;;;;;;-4.67;63.51;102240.23;109508;1271;138631;-61
2022/03/19 00:11:29;;;;;;;126.70;58.30;;;;;;;-4.70;63.57;102239.91;109686;1271;22451;-60
2022/03/19 00:13:57;;;;;;;140.60;63.00;;;;;;;-4.75;63.35;102238.29;109675;1271;22452;-60
2022/03/19 00:16:25;;;;;;;134.40;58.20;;;;;;;-4.78;63.31;102240.96;109570;1271;138068;-60
2022/03/19 00:19:06;;;;;;;136.60;57.30;;;;;;;-4.81;63.27;102239.69;109653;1271;22300;-61
2022/03/19 00:21:37;;;;;;;137.50;61.10;;;;;;;-4.82;63.20;102235.00;109555;1271;138161;-60
2022/03/19 00:24:06;;;;;;;130.30;58.10;;;;;;;-4.85;63.22;102235.66;109634;1271;22417;-60
2022/03/19 00:26:34;;;;;;;113.30;54.00;;;;;;;-4.85;63.31;102233.06;109580;1269;138678;-60
2022/03/19 00:29:09;;;;;;;119.60;54.50;;;;;;;-4.87;63.00;102229.79;109671;1271;22443;-59
2022/03/19 00:31:37;;;;;;;126.20;54.50;;;;;;;-4.90;63.03;102228.36;109558;1271;23127;-59
2022/03/19 00:34:06;;;;;;;115.10;51.40;;;;;;;-4.93;63.08;102223.42;109529;1271;138608;-61
2022/03/19 00:36:36;;;;;;;119.40;53.00;;;;;;;-4.94;62.98;102217.30;109599;1271;22426;-60
2022/03/19 00:39:04;;;;;;;113.50;50.00;;;;;;;-4.94;62.92;102212.33;109541;1271;140494;-61
2022/03/19 00:41:33;;;;;;;119.50;50.90;;;;;;;-4.98;62.85;102215.77;109582;1271;22397;-60
2022/03/19 00:44:01;;;;;;;114.10;48.70;;;;;;;-5.03;63.02;102217.09;109632;1271;22427;-60
2022/03/19 00:46:29;;;;;;;122.60;51.10;;;;;;;-5.04;62.96;102213.94;109564;1271;138449;-61
2022/03/19 00:48:59;;;;;;;121.90;51.20;;;;;;;-5.05;62.75;102208.94;109630;1271;22349;-61
2022/03/19 00:51:27;;;;;;;113.00;48.40;;;;;;;-5.08;62.79;102208.90;109506;1269;138940;-61
2022/03/19 00:53:55;;;;;;;115.60;51.90;;;;;;;-5.10;62.86;102208.48;109641;1271;23232;-60
2022/03/19 00:56:24;;;;;;;120.90;51.40;;;;;;;-5.09;62.79;102209.88;109529;1271;139310;-60
2022/03/19 00:58:52;;;;;;;116.00;48.70;;;;;;;-5.08;62.62;102206.63;109705;1270;22240;-60
2022/03/19 01:01:22;;;;;;;110.40;49.10;;;;;;;-5.06;62.70;102207.39;109618;1270;22261;-60
2022/03/19 01:03:51;;;;;;;106.80;48.60;;;;;;;-5.08;62.68;102200.58;109528;1271;138080;-60
2022/03/19 01:06:20;;;;;;;105.70;48.60;;;;;;;-5.09;62.56;102202.61;109664;1271;22455;-61
2022/03/19 01:08:52;;;;;;;114.30;49.80;;;;;;;-5.12;62.66;102203.67;109514;1271;139274;-60
2022/03/19 01:11:23;;;;;;;115.50;52.60;;;;;;;-5.14;62.74;102208.39;109676;1271;22569;-60
2022/03/19 01:14:11;;;;;;;;;;;;;;;-5.17;62.57;102205.38;109636;1271;22549;-60
2022/03/19 01:16:59;;;;;;;102.20;47.60;;;;;;;-5.20;62.78;102203.82;109543;1270;124630;-60
2022/03/19 01:20:02;;;;;;;119.30;50.60;;;;;;;-5.23;62.95;102201.51;109635;1271;22272;-61
2022/03/19 01:22:23;;;;;;;123.60;50.60;;;;;;;-5.24;63.06;102202.64;109514;1270;138220;-59
2022/03/19 01:24:51;;;;;;;123.90;54.50;;;;;;;-5.28;63.34;102200.70;109669;1271;23188;-59
2022/03/19 01:27:19;;;;;;;121.60;57.10;;;;;;;-5.31;63.26;102205.86;109541;1271;139053;-60
2022/03/19 01:29:48;;;;;;;130.80;55.20;;;;;;;-5.37;63.56;102204.05;109672;1271;22448;-60
2022/03/19 01:32:17;;;;;;;147.50;64.50;;;;;;;-5.41;63.43;102206.59;109662;1271;22392;-60
2022/03/19 01:34:45;;;;;;;146.10;68.00;;;;;;;-5.48;63.68;102205.22;109539;1271;138007;-60
2022/03/19 01:37:13;;;;;;;140.70;63.40;;;;;;;-5.51;63.82;102199.23;109645;1271;22544;-61
2022/03/19 01:39:41;;;;;;;139.90;62.50;;;;;;;-5.53;63.66;102199.36;109499;1272;138864;-60
2022/03/19 01:42:10;;;;;;;136.10;60.00;;;;;;;-5.58;63.84;102204.42;109595;1271;22458;-61
2022/03/19 01:44:38;;;;;;;126.20;61.50;;;;;;;-5.62;63.95;102206.94;109445;1271;138545;-59
2022/03/19 01:47:10;;;;;;;142.40;61.20;;;;;;;-5.65;64.05;102203.75;109599;1271;22478;-61
2022/03/19 01:49:38;;;;;;;123.50;58.20;;;;;;;-5.67;64.26;102201.41;109627;1271;22468;-60
2022/03/19 01:52:07;;;;;;;134.20;62.50;;;;;;;-5.67;64.37;102200.91;109498;1271;138984;-60
2022/03/19 01:54:38;;;;;;;154.80;65.50;;;;;;;-5.68;64.35;102199.73;109571;1271;22437;-60
2022/03/19 01:57:07;;;;;;;131.00;62.70;;;;;;;-5.69;64.53;102204.52;109474;1271;139196;-60
2022/03/19 01:59:56;;;;;;;139.10;59.20;;;;;;;-5.69;64.67;102205.43;109364;1271;22457;-61
2022/03/19 02:02:26;;;;;;;137.90;59.80;;;;;;;-5.69;64.57;102202.40;109540;1274;22524;-61
2022/03/19 02:04:55;;;;;;;132.50;61.70;;;;;;;-5.68;64.62;102201.33;109422;1273;137865;-61
2022/03/19 02:07:23;;;;;;;126.40;59.40;;;;;;;-5.69;64.73;102195.51;109538;1272;23453;-60
2022/03/19 02:09:52;;;;;;;139.20;59.80;;;;;;;-5.68;64.71;102200.92;109495;1271;139836;-60
2022/03/19 02:12:21;;;;;;;142.90;60.30;;;;;;;-5.70;64.88;102202.30;109470;1272;22538;-61
2022/03/19 02:14:50;;;;;;;143.70;60.30;;;;;;;-5.70;64.94;102204.95;109494;1271;139907;-61
2022/03/19 02:17:20;;;;;;;137.30;59.50;;;;;;;-5.73;64.72;102206.85;109472;1271;22246;-60
2022/03/19 02:19:51;;;;;;;133.40;60.90;;;;;;;-5.74;64.99;102206.94;109594;1271;22425;-60
2022/03/19 02:22:23;;;;;;;139.00;58.40;;;;;;;-5.76;64.99;102206.34;109468;1271;141128;-60
2022/03/19 02:27:39;;;;;;;133.50;59.10;;;;;;;-5.77;65.23;102210.63;104934;1271;139786;-61
2022/03/19 02:30:10;;;;;;;135.80;59.60;;;;;;;-5.78;65.28;102208.93;104985;1274;22574;-61
2022/03/19 02:32:40;;;;;;;149.40;63.10;;;;;;;-5.78;65.35;102208.59;109524;1271;139739;-60
2022/03/19 02:35:09;;;;;;;131.30;59.30;;;;;;;-5.74;65.40;102211.90;109654;1271;23207;-60
2022/03/19 02:37:43;;;;;;;133.90;59.70;;;;;;;-5.75;65.47;102214.58;109592;1271;22443;-60
2022/03/19 02:40:13;;;;;;;129.60;59.30;;;;;;;-5.76;65.32;102213.80;109393;1273;138133;-60
2022/03/19 02:42:50;;;;;;;131.30;57.60;;;;;;;-5.79;65.28;102216.80;109570;1273;22440;-61
2022/03/19 02:45:20;;;;;;;131.60;61.50;;;;;;;-5.82;65.39;102213.23;109416;1273;138008;-61
2022/03/19 02:47:57;;;;;;;143.60;59.30;;;;;;;-5.82;65.44;102214.31;109526;1273;22538;-59
2022/03/19 02:50:36;;;;;;;131.60;61.00;;;;;;;-5.81;65.48;102218.70;109568;1272;22408;-59
2022/03/19 02:53:08;;;;;;;125.10;58.50;;;;;;;-5.82;65.64;102218.04;109143;1273;318786;-60
2022/03/19 02:56:15;;;;;;;149.30;69.00;;;;;;;-5.80;65.70;102216.67;101965;1311;545219;-60
2022/03/19 02:58:43;;;;;;;155.30;69.40;;;;;;;-5.80;65.70;102220.41;107996;1286;138793;-60
2022/03/19 03:01:11;;;;;;;150.00;69.00;;;;;;;-5.80;65.85;102216.17;108131;1288;23348;-60
2022/03/19 03:03:41;;;;;;;162.90;73.50;;;;;;;-5.82;66.12;102218.54;108022;1288;137368;-60
2022/03/19 03:06:10;;;;;;;164.90;74.10;;;;;;;-5.82;66.14;102224.20;108122;1288;23331;-60
2022/03/19 03:08:39;;;;;;;167.40;70.50;;;;;;;-5.81;66.27;102222.56;108130;1288;22433;-60
2022/03/19 03:11:07;;;;;;;176.20;79.60;;;;;;;-5.80;66.19;102219.84;108209;1286;138202;-60
2022/03/19 03:13:35;;;;;;;183.10;82.20;;;;;;;-5.80;66.18;102227.80;108428;1286;22260;-60
2022/03/19 03:16:05;;;;;;;185.10;86.50;;;;;;;-5.79;66.23;102227.58;108299;1285;137567;-60
2022/03/19 03:18:33;;;;;;;187.10;86.20;;;;;;;-5.76;66.20;102231.09;108404;1286;22443;-60
2022/03/19 03:21:07;;;;;;;191.20;88.50;;;;;;;-5.71;66.20;102232.09;108309;1286;138662;-61
2022/03/19 03:23:35;;;;;;;197.60;87.80;;;;;;;-5.67;66.01;102233.48;108413;1286;22455;-60
2022/03/19 03:26:04;;;;;;;179.90;87.80;;;;;;;-5.64;66.02;102229.77;106834;1286;25289;-59
2022/03/19 03:28:32;;;;;;;194.70;87.50;;;;;;;-5.63;65.73;102235.70;108275;1286;138236;-60
2022/03/19 03:31:00;;;;;;;182.00;85.30;;;;;;;-5.64;65.79;102232.91;108435;1286;22258;-60
2022/03/19 03:33:29;;;;;;;191.50;86.50;;;;;;;-5.64;65.85;102234.87;108139;1285;138109;-60
2022/03/19 03:35:57;;;;;;;197.00;88.00;;;;;;;-5.64;65.76;102234.17;108235;1287;22391;-60
2022/03/19 03:38:25;;;;;;;182.90;86.20;;;;;;;-5.65;65.71;102236.70;108186;1287;23150;-60
2022/03/19 03:40:54;;;;;;;181.90;84.90;;;;;;;-5.66;65.83;102241.40;108158;1287;138291;-60
2022/03/19 03:43:24;;;;;;;197.70;91.60;;;;;;;-5.67;65.94;102243.56;109358;1276;22452;-60
2022/03/19 03:45:53;;;;;;;203.30;89.60;;;;;;;-5.67;66.02;102237.70;109195;1276;138571;-60
2022/03/19 03:48:21;;;;;;;202.90;91.40;;;;;;;-5.65;66.14;102243.45;109313;1276;22612;-60
2022/03/19 03:50:55;;;;;;;210.60;92.60;;;;;;;-5.64;66.19;102243.23;109184;1276;139523;-60
2022/03/19 03:53:25;;;;;;;193.90;90.60;;;;;;;-5.60;66.29;102243.85;109239;1276;22706;-60
2022/03/19 03:55:57;;;;;;;211.20;93.90;;;;;;;-5.56;66.28;102246.30;107858;1276;25347;-60
2022/03/19 03:58:26;;;;;;;209.70;93.80;;;;;;;-5.55;66.15;102244.23;109101;1276;138986;-59
2022/03/19 04:00:55;;;;;;;213.20;97.80;;;;;;;-5.54;65.97;102248.98;109258;1276;22384;-60
2022/03/19 04:03:38;;;;;;;206.20;97.60;;;;;;;-5.54;66.03;102243.52;109102;1276;139574;-59
2022/03/19 04:06:07;;;;;;;227.10;98.20;;;;;;;-5.56;65.99;102244.47;109289;1276;22589;-60
2022/03/19 04:08:35;;;;;;;215.80;100.00;;;;;;;-5.55;66.03;102245.52;109261;1276;22447;-60
2022/03/19 04:11:03;;;;;;;208.50;99.30;;;;;;;-5.55;65.96;102247.44;109070;1277;139255;-60
2022/03/19 04:13:39;;;;;;;206.10;98.60;;;;;;;-5.58;65.91;102245.14;109214;1277;23402;-59
2022/03/19 04:16:07;;;;;;;220.20;97.90;;;;;;;-5.59;65.77;102246.64;109099;1277;139374;-60
2022/03/19 04:18:36;;;;;;;215.00;100.80;;;;;;;-5.60;65.85;102248.78;109183;1277;22426;-59
2022/03/19 04:21:04;;;;;;;225.70;103.90;;;;;;;-5.60;65.76;102247.91;109127;1277;139381;-59
2022/03/19 04:23:33;;;;;;;207.40;101.30;;;;;;;-5.60;65.75;102248.10;109171;1276;23670;-59
2022/03/19 04:26:02;;;;;;;209.40;102.20;;;;;;;-5.61;65.74;102251.84;109231;1278;22462;-60
2022/03/19 04:28:31;;;;;;;212.10;97.80;;;;;;;-5.62;65.75;102251.05;109096;1277;138798;-59
2022/03/19 04:30:59;;;;;;;184.40;94.50;;;;;;;-5.64;65.80;102248.88;109221;1277;23533;-59
2022/03/19 04:33:33;;;;;;;194.40;97.70;;;;;;;-5.65;65.94;102252.08;109093;1277;138365;-60
2022/03/19 04:38:50;;;;;;;186.00;93.70;;;;;;;-5.67;66.20;102251.52;109079;1277;137827;-59
2022/03/19 04:41:18;;;;;;;201.30;96.90;;;;;;;-5.67;66.32;102255.25;109209;1277;23265;-60
2022/03/19 04:43:47;;;;;;;196.40;98.70;;;;;;;-5.66;66.70;102255.34;109241;1276;22478;-60
2022/03/19 04:46:16;;;;;;;198.60;100.20;;;;;;;-5.63;66.96;102256.08;109168;1276;138892;-60
2022/03/19 04:48:45;;;;;;;200.10;101.70;;;;;;;-5.58;67.23;102255.42;109224;1277;22560;-59
2022/03/19 04:51:17;;;;;;;215.00;106.10;;;;;;;-5.51;67.38;102258.71;109024;1276;139862;-60
2022/03/19 04:53:50;;;;;;;218.10;106.00;;;;;;;-5.40;67.79;102263.94;109233;1276;22483;-59
2022/03/19 04:56:20;;;;;;;220.20;103.80;;;;;;;-5.25;67.88;102263.98;109209;1277;23256;-60
2022/03/19 04:58:51;;;;;;;236.10;112.30;;;;;;;-5.09;67.85;102264.93;109054;1277;137691;-60
2022/03/19 05:01:19;;;;;;;234.70;107.90;;;;;;;-4.91;67.85;102261.39;109168;1276;23282;-60
2022/03/19 05:03:54;;;;;;;221.80;103.90;;;;;;;-4.73;67.71;102258.88;109010;1277;139898;-60
2022/03/19 05:06:22;;;;;;;252.40;110.10;;;;;;;-4.57;67.48;102256.55;109224;1276;22475;-60
2022/03/19 05:11:40;;;;;;;227.20;103.40;;;;;;;-4.30;66.86;102257.30;109021;1279;22440;-60
2022/03/19 05:14:09;;;;;;;236.00;103.20;;;;;;;-4.17;66.37;102258.08;109236;1277;22430;-60
2022/03/19 05:16:43;;;;;;;240.80;102.60;;;;;;;-4.06;66.25;102258.98;109089;1277;139129;-60
2022/03/19 05:19:11;;;;;;;216.50;102.60;;;;;;;-3.95;65.73;102259.33;109235;1277;23210;-59
2022/03/19 05:21:45;;;;;;;228.60;100.60;;;;;;;-3.83;65.13;102266.94;109102;1277;137880;-60
2022/03/19 05:24:41;;;;;;;211.30;98.80;;;;;;;-3.72;65.01;102268.55;109215;1277;23125;-60
2022/03/19 05:27:15;;;;;;;187.30;93.60;;;;;;;-3.64;64.74;102269.58;109115;1276;137856;-59
2022/03/19 05:29:48;;;;;;;198.80;92.60;;;;;;;-3.55;64.37;102271.69;109189;1277;23409;-60
2022/03/19 05:32:16;;;;;;;199.60;90.90;;;;;;;-3.47;64.30;102275.27;109223;1277;22266;-59
2022/03/19 05:34:55;;;;;;;173.00;82.50;;;;;;;-3.38;64.09;102276.96;109123;1277;138893;-59
2022/03/19 05:37:39;;;;;;;172.80;83.40;;;;;;;-3.26;63.88;102279.71;104848;1278;22707;-59
2022/03/19 05:40:12;;;;;;;181.10;82.10;;;;;;;-3.14;63.52;102280.16;109105;1277;138728;-60
2022/03/19 05:42:41;;;;;;;184.50;79.00;;;;;;;-3.00;63.22;102281.02;109254;1277;22616;-60
2022/03/19 05:45:11;;;;;;;211.80;79.70;;;;;;;-2.88;62.30;102282.85;109085;1276;138109;-60
2022/03/19 05:47:42;;;;;;;259.00;99.30;;;;;;;-2.75;60.34;102282.86;109196;1277;23350;-59
2022/03/19 05:50:13;;;;;;;287.90;104.60;;;;;;;-2.59;58.85;102287.25;109193;1277;22424;-59
2022/03/19 05:52:47;;;;;;;271.90;101.10;;;;;;;-2.42;57.67;102290.34;109062;1277;139836;-59
2022/03/19 05:55:15;;;;;;;270.90;96.50;;;;;;;-2.27;56.87;102290.36;109258;1277;22273;-60
2022/03/19 05:57:45;;;;;;;304.40;105.90;;;;;;;-2.12;55.46;102290.05;109088;1277;138524;-60
2022/03/19 06:00:13;;;;;;;289.10;98.00;;;;;;;-1.99;54.34;102290.16;109002;1277;22410;-59
2022/03/19 06:02:42;;;;;;;269.00;97.00;;;;;;;-1.88;53.27;102286.00;109225;1277;22955;-60
2022/03/19 06:05:14;;;;;;;240.30;83.70;;;;;;;-1.74;52.67;102284.13;109138;1277;138421;-60
2022/03/19 06:07:44;;;;;;;226.60;87.00;;;;;;;-1.63;52.43;102286.99;109206;1277;23489;-60
2022/03/19 06:10:19;;;;;;;208.60;80.20;;;;;;;-1.53;51.36;102285.95;109123;1277;139293;-60
2022/03/19 06:12:51;;;;;;;222.80;84.60;;;;;;;-1.41;50.45;102286.45;109242;1277;22521;-60
2022/03/19 06:15:24;;;;;;;243.40;87.50;;;;;;;-1.29;50.51;102295.05;109127;1277;138881;-60
2022/03/19 06:17:52;;;;;;;235.10;89.70;;;;;;;-1.22;50.03;102293.08;109236;1277;22430;-60
2022/03/19 06:20:22;;;;;;;244.00;86.40;;;;;;;-1.15;49.81;102292.87;109223;1277;22513;-60
2022/03/19 06:22:51;;;;;;;259.00;90.90;;;;;;;-1.06;48.92;102292.23;109161;1277;137979;-60
2022/03/19 06:25:19;;;;;;;255.10;88.80;;;;;;;-0.99;48.21;102291.19;109197;1277;22440;-60
2022/03/19 06:27:47;;;;;;;240.40;87.00;;;;;;;-0.92;48.22;102289.21;109117;1276;138267;-60
2022/03/19 06:30:15;;;;;;;222.10;82.10;;;;;;;-0.84;47.86;102290.39;109223;1277;22453;-60
2022/03/19 06:32:44;;;;;;;223.50;81.90;;;;;;;-0.77;47.43;102287.00;109224;1277;22495;-60
2022/03/19 06:37:19;;;;;;;246.10;83.90;;;;;;;-0.67;46.65;102292.48;109026;1277;139703;-60
2022/03/19 06:38:01;;;;;;;214.80;78.70;;;;;;;-0.58;45.92;102295.18;109182;1276;23352;-60
2022/03/19 06:40:30;;;;;;;210.00;73.30;;;;;;;-0.50;45.73;102298.63;109125;1277;137730;-60
2022/03/19 06:42:58;;;;;;;219.00;80.60;;;;;;;-0.40;45.29;102296.09;109239;1276;23422;-60
2022/03/19 06:45:26;;;;;;;257.40;88.60;;;;;;;-0.32;44.31;102292.10;109075;1277;139223;-60
2022/03/19 06:47:55;;;;;;;231.00;80.30;;;;;;;-0.26;44.09;102290.55;109235;1277;22395;-60
2022/03/19 06:50:24;;;;;;;222.00;76.50;;;;;;;-0.21;44.20;102281.98;109213;1276;22485;-60
2022/03/19 06:52:52;;;;;;;224.90;77.00;;;;;;;-0.14;44.01;102286.39;109128;1276;137819;-60
2022/03/19 06:55:26;;;;;;;192.10;73.50;;;;;;;-0.09;43.43;102290.38;109345;1276;22471;-60
2022/03/19 06:57:58;;;;;;;194.80;72.10;;;;;;;-0.04;42.75;102294.27;109165;1274;139272;-60
2022/03/19 07:00:27;;;;;;;203.90;76.00;;;;;;;0.00;42.76;102293.27;109319;1275;22325;-60
2022/03/19 07:02:55;;;;;;;157.70;56.70;;;;;;;0.05;42.78;102290.77;109242;1275;138686;-58
2022/03/19 07:05:25;;;;;;;160.90;59.00;;;;;;;0.12;42.83;102288.59;109382;1274;22381;-60
2022/03/19 07:07:55;;;;;;;145.70;50.50;;;;;;;0.20;41.64;102287.52;109265;1274;22451;-60
2022/03/19 07:10:23;;;;;;;140.20;49.30;;;;;;;0.31;41.33;102295.98;109230;1274;138645;-60
2022/03/19 07:12:53;;;;;;;128.90;46.90;;;;;;;0.37;40.76;102289.08;109300;1276;22448;-60
2022/03/19 07:15:41;;;;;;;120.40;47.90;;;;;;;0.44;41.54;102298.73;109134;1276;138981;-60
2022/03/19 07:18:09;;;;;;;81.00;27.70;;;;;;;0.49;40.75;102296.63;109266;1277;23212;-60
2022/03/19 07:20:37;;;;;;;59.10;23.10;;;;;;;0.59;40.37;102301.14;109297;1275;22454;-60
2022/03/19 07:23:07;;;;;;;47.40;21.00;;;;;;;0.69;40.42;102304.28;109160;1276;137514;-60
2022/03/19 07:25:36;;;;;;;47.10;19.40;;;;;;;0.76;40.24;102299.79;109245;1276;23210;-60
2022/03/19 07:28:08;;;;;;;44.40;18.50;;;;;;;0.82;40.23;102297.12;109144;1276;137845;-60
2022/03/19 07:30:36;;;;;;;33.20;16.50;;;;;;;0.89;40.31;102297.59;109271;1276;22415;-60
2022/03/19 07:33:04;;;;;;;38.60;16.40;;;;;;;0.97;40.04;102295.48;109158;1276;138967;-60
2022/03/19 07:35:33;;;;;;;37.80;16.00;;;;;;;1.05;39.41;102292.85;109242;1276;22474;-60
2022/03/19 07:38:02;;;;;;;37.60;17.20;;;;;;;1.13;39.08;102289.23;109263;1275;23468;-60
2022/03/19 07:43:16;;;;;;;32.00;14.60;;;;;;;1.24;38.94;102288.21;109312;1276;22474;-60
2022/03/19 07:45:49;;;;;;;35.00;15.10;;;;;;;1.33;38.24;102286.91;109176;1274;138238;-60
2022/03/19 07:48:17;;;;;;;22.00;10.00;;;;;;;1.42;38.12;102285.29;109321;1276;22518;-60
2022/03/19 07:50:55;;;;;;;19.80;8.50;;;;;;;1.50;37.72;102282.80;109257;1276;22426;-60
2022/03/19 07:53:23;;;;;;;27.10;11.70;;;;;;;1.57;37.69;102284.67;109218;1276;137746;-60
2022/03/19 07:55:53;;;;;;;20.20;9.20;;;;;;;1.61;37.00;102284.52;109248;1275;22448;-60
2022/03/19 07:58:22;;;;;;;13.40;7.60;;;;;;;1.63;36.82;102281.59;109153;1274;137328;-59
2022/03/19 08:00:50;;;;;;;17.20;9.20;;;;;;;1.70;36.23;102283.17;109256;1275;22400;-60
2022/03/19 08:03:19;;;;;;;22.90;10.00;;;;;;;1.77;36.54;102286.15;109089;1276;137530;-59
2022/03/19 08:05:52;;;;;;;25.80;12.20;;;;;;;1.82;36.32;102286.33;109303;1274;22229;-59
2022/03/19 08:08:21;;;;;;;13.00;6.80;;;;;;;1.87;36.30;102287.30;109155;1277;22497;-59
2022/03/19 08:10:49;;;;;;;10.60;6.40;;;;;;;1.92;36.15;102287.04;109143;1276;137959;-59
2022/03/19 08:13:17;;;;;;;14.90;6.50;;;;;;;1.96;36.07;102287.50;109111;1276;22455;-59
2022/03/19 08:15:48;;;;;;;12.40;6.10;;;;;;;2.02;35.74;102281.50;109158;1276;138690;-60
2022/03/19 08:18:17;;;;;;;14.10;6.80;;;;;;;2.02;35.78;102278.40;109223;1276;22526;-60
2022/03/19 08:20:46;;;;;;;14.00;6.70;;;;;;;2.03;35.57;102278.46;109237;1275;22250;-60
2022/03/19 08:23:19;;;;;;;11.40;5.50;;;;;;;2.05;35.61;102276.32;109149;1276;139134;-60
2022/03/19 08:25:47;;;;;;;17.20;6.70;;;;;;;2.09;35.23;102279.02;108061;1276;22589;-60
2022/03/19 08:28:16;;;;;;;10.00;5.40;;;;;;;2.12;35.23;102277.13;109135;1276;137514;-60
2022/03/19 08:30:44;;;;;;;10.10;5.70;;;;;;;2.18;35.00;102274.98;109264;1276;23413;-60
2022/03/19 08:33:12;;;;;;;9.90;5.90;;;;;;;2.23;35.33;102274.92;109140;1275;139703;-60
2022/03/19 08:35:41;;;;;;;10.40;6.10;;;;;;;2.28;35.07;102273.62;109254;1276;22440;-60
2022/03/19 08:40:57;;;;;;;11.30;6.20;;;;;;;2.36;34.75;102271.80;109084;1277;139470;-60
2022/03/19 08:43:25;;;;;;;8.30;5.70;;;;;;;2.41;34.72;102270.82;109282;1276;23256;-60
2022/03/19 08:45:53;;;;;;;11.00;5.80;;;;;;;2.46;34.67;102269.75;109118;1277;138159;-60
2022/03/19 08:48:22;;;;;;;14.70;6.70;;;;;;;2.54;33.91;102269.86;109267;1274;22519;-60
2022/03/19 08:50:50;;;;;;;13.00;6.10;;;;;;;2.57;33.62;102271.85;109256;1276;22421;-60
2022/03/19 08:53:18;;;;;;;15.20;6.10;;;;;;;2.56;34.30;102271.93;109149;1276;137387;-60
2022/03/19 08:55:48;;;;;;;11.80;6.30;;;;;;;2.56;34.67;102270.15;109261;1274;22455;-60
2022/03/19 08:58:16;;;;;;;17.00;6.80;;;;;;;2.56;34.27;102271.96;109153;1275;137311;-60
2022/03/19 09:00:46;;;;;;;13.10;6.80;;;;;;;2.57;34.29;102270.80;109155;1277;23198;-60
2022/03/19 09:03:14;;;;;;;16.80;7.30;;;;;;;2.58;34.08;102274.63;109078;1276;137700;-60
2022/03/19 09:05:43;;;;;;;15.10;7.00;;;;;;;2.60;34.03;102275.39;109266;1275;22441;-60
2022/03/19 09:08:12;;;;;;;14.20;6.70;;;;;;;2.61;33.98;102275.41;109279;1276;22411;-60
2022/03/19 09:10:40;;;;;;;12.00;7.20;;;;;;;2.61;33.32;102272.58;109115;1275;137394;-60
2022/03/19 09:13:09;;;;;;;12.20;7.10;;;;;;;2.63;33.43;102274.52;109290;1276;22429;-60
2022/03/19 09:15:38;;;;;;;16.20;8.20;;;;;;;2.67;32.94;102276.90;109171;1275;138036;-60
2022/03/19 09:18:06;;;;;;;14.40;6.90;;;;;;;2.71;32.82;102278.33;109250;1275;23569;-60
2022/03/19 09:20:46;;;;;;;13.50;6.50;;;;;;;2.72;32.95;102278.96;109191;1276;22503;-60
2022/03/19 09:23:14;;;;;;;14.30;7.30;;;;;;;2.74;33.48;102283.92;109146;1275;137301;-60
2022/03/19 09:25:43;;;;;;;12.00;6.90;;;;;;;2.76;33.75;102281.41;109281;1274;22456;-60
2022/03/19 09:28:11;;;;;;;11.50;6.80;;;;;;;2.79;34.03;102281.85;109158;1276;139036;-60
2022/03/19 09:30:39;;;;;;;12.60;6.90;;;;;;;2.82;34.01;102280.89;109248;1275;22961;-59
2022/03/19 09:33:07;;;;;;;13.50;7.50;;;;;;;2.84;34.31;102283.93;109031;1277;137942;-60
2022/03/19 09:35:46;;;;;;;13.00;6.70;;;;;;;2.88;34.25;102281.30;109268;1275;22456;-60
2022/03/19 09:38:15;;;;;;;13.60;7.00;;;;;;;2.91;34.10;102274.66;109280;1275;22275;-60
2022/03/19 09:40:44;;;;;;;11.50;6.70;;;;;;;2.97;33.20;102271.07;109159;1274;139146;-59
2022/03/19 09:43:12;;;;;;;14.70;7.00;;;;;;;3.01;32.94;102277.18;109317;1275;22437;-59
2022/03/19 09:45:40;;;;;;;13.70;7.00;;;;;;;3.02;33.14;102270.02;109158;1276;139611;-60
2022/03/19 09:48:08;;;;;;;11.80;6.50;;;;;;;3.07;34.00;102272.31;109176;1276;22405;-60
2022/03/19 09:50:38;;;;;;;10.80;6.30;;;;;;;3.10;33.54;102267.49;109281;1274;22431;-60
2022/03/19 09:53:09;;;;;;;11.00;6.60;;;;;;;3.09;33.70;102264.91;109174;1276;137532;-59
2022/03/19 09:55:38;;;;;;;10.40;6.90;;;;;;;3.10;33.72;102258.91;109286;1275;23174;-60
2022/03/19 09:58:06;;;;;;;12.40;6.50;;;;;;;3.10;34.34;102254.17;109060;1276;138041;-60
2022/03/19 10:00:34;;;;;;;10.70;6.60;;;;;;;3.15;34.03;102255.52;109310;1275;22444;-60
2022/03/19 10:03:03;;;;;;;11.80;6.70;;;;;;;3.18;33.99;102255.20;109125;1276;137646;-58
2022/03/19 10:08:38;;;;;;;12.30;6.20;;;;;;;3.24;33.55;102257.05;109293;1275;22452;-59
2022/03/19 10:11:18;;;;;;;10.90;5.70;;;;;;;3.27;34.33;102255.89;109194;1276;137506;-60
2022/03/19 10:13:48;;;;;;;15.30;6.90;;;;;;;3.32;33.80;102252.94;109305;1275;23625;-60
2022/03/19 10:16:26;;;;;;;12.60;7.30;;;;;;;3.34;33.62;102248.04;109110;1276;137232;-60
2022/03/19 10:18:55;;;;;;;11.30;6.50;;;;;;;3.37;33.83;102244.09;109266;1274;22487;-60
2022/03/19 10:21:24;;;;;;;12.30;6.50;;;;;;;3.42;33.49;102240.23;109172;1275;138084;-60
2022/03/19 10:23:52;;;;;;;12.50;6.40;;;;;;;3.42;33.26;102244.52;109266;1276;22413;-60
2022/03/19 10:26:27;;;;;;;11.30;5.80;;;;;;;3.41;32.96;102247.14;109269;1275;22424;-60
2022/03/19 10:29:00;;;;;;;13.00;5.10;;;;;;;3.40;33.09;102242.42;109168;1274;137689;-60
2022/03/19 10:31:39;;;;;;;9.40;5.90;;;;;;;3.38;32.73;102237.89;109323;1276;22485;-61
2022/03/19 10:34:07;;;;;;;10.30;5.60;;;;;;;3.40;32.61;102231.30;109196;1275;138717;-63
2022/03/19 10:36:39;;;;;;;13.90;6.40;;;;;;;3.41;32.45;102227.42;109296;1276;23122;-60
2022/03/19 10:39:13;;;;;;;10.10;5.80;;;;;;;3.41;32.42;102222.41;109188;1275;138516;-60
2022/03/19 10:41:41;;;;;;;8.50;5.40;;;;;;;3.43;32.73;102220.73;109182;1277;22578;-59
2022/03/19 10:44:12;;;;;;;11.10;5.90;;;;;;;3.46;32.47;102215.74;109240;1275;22419;-60
2022/03/19 10:46:51;;;;;;;10.20;5.60;;;;;;;3.53;32.26;102216.70;109038;1276;137586;-62
2022/03/19 10:49:26;;;;;;;13.70;5.90;;;;;;;3.60;32.09;102211.54;109131;1276;22475;-59
2022/03/19 10:51:56;;;;;;;15.50;6.30;;;;;;;3.65;31.61;102211.77;109152;1276;137820;-60
2022/03/19 10:54:25;;;;;;;13.70;6.00;;;;;;;3.70;31.57;102212.45;109216;1275;22453;-60
2022/03/19 10:56:53;;;;;;;13.40;6.00;;;;;;;3.72;31.83;102207.90;109323;1273;22455;-60
2022/03/19 10:59:22;;;;;;;11.40;5.80;;;;;;;3.78;31.27;102204.92;109175;1275;137551;-60
2022/03/19 11:01:50;;;;;;;8.60;5.20;;;;;;;3.83;31.66;102201.98;109294;1276;23442;-60
2022/03/19 11:04:19;;;;;;;9.20;5.20;;;;;;;3.87;31.60;102203.41;109222;1275;137478;-59
2022/03/19 11:06:50;;;;;;;11.60;5.90;;;;;;;3.90;31.43;102204.09;106342;1276;22565;-58
2022/03/19 11:09:19;;;;;;;9.90;5.30;;;;;;;3.95;30.80;102199.33;109167;1275;138019;-59
2022/03/19 11:11:58;;;;;;;14.10;5.70;;;;;;;4.02;31.32;102203.04;109158;1277;22652;-60
2022/03/19 11:14:27;;;;;;;11.80;6.20;;;;;;;4.09;30.49;102199.40;109197;1276;23820;-59
2022/03/19 11:17:24;;;;;;;10.90;5.50;;;;;;;4.08;30.51;102197.13;109191;1276;138323;-59
2022/03/19 11:20:12;;;;;;;15.00;6.20;;;;;;;4.03;30.35;102196.06;109068;1276;23736;-59
2022/03/19 11:22:46;;;;;;;9.60;6.20;;;;;;;4.04;30.46;102195.46;109056;1276;138165;-60
2022/03/19 11:25:39;;;;;;;25.40;10.30;;;;;;;4.10;30.09;102193.68;109141;1275;22443;-59
2022/03/19 11:28:11;;;;;;;37.20;20.00;;;;;;;4.12;29.70;102187.20;109048;1276;138602;-60
2022/03/19 11:30:45;;;;;;;12.70;6.20;;;;;;;4.10;30.32;102183.15;109035;1276;22387;-60
2022/03/19 11:33:20;;;;;;;14.60;5.80;;;;;;;4.11;30.48;102183.52;109175;1276;139116;-60